• Join FlightAware (Why Join?)
  • Login
  • US Flag 
06:04AM EDT


 

Airport Tracker/Info


-or-


 

Live Flight TrackerFlight Track Log ✈ N724EA ✈ 05-May-2013 ✈ KNEW - KBCT

Flight Track Log - Related Links

Times and Time Zones

All times are in EDT time to prevent confusion due to time zone crossing. See the N724EA flight status page for this flight to view local times or setup timezone preferences in your user account.

Time Position Orientation Groundspeed Altitude Reporting Facility
EDT Latitude Longitude Course Direction KTS MPH feet Rate Location/Type
02:58PM 30.0547 -90.0322 North 123 142 900  Level Houston Center
02:58PM 30.0778 -90.0311 North 156 180 2,400 2,820 Climbing Houston Center
02:59PM 30.1286 -90.0122 18° North 205 236 5,700 2,700 Climbing Houston Center
03:00PM 30.1519 -89.9408 69° East 245 282 8,200 1,560 Climbing Houston Center
03:01PM 30.0983 -89.8706 131° Southeast 306 352 9,000 360 Climbing Houston Center
03:02PM 29.9983 -89.8528 171° South 303 349 9,000 960 Level Houston Center
03:04PM 29.9111 -89.8386 172° South 312 359 11,000 2,160 Climbing Houston Center
03:05PM 29.8194 -89.8039 162° South 353 406 13,500 2,340 Climbing Houston Center
03:06PM 29.7594 -89.7103 126° Southeast 370 426 15,900 1,500 Climbing Houston Center
03:08PM 29.6769 -89.4358 109° East 421 484 18,300 1,080 Climbing Houston Center
03:09PM 29.6369 -89.3042 109° East 433 498 19,400 960 Climbing Houston Center
03:10PM 29.5972 -89.1669 108° East 450 518 20,400 960 Climbing Houston Center
03:11PM 29.5567 -89.0333 109° East 448 516 21,400 960 Climbing Houston Center
03:12PM 29.5169 -88.8994 109° East 447 514 22,400 1,080 Climbing Houston Center
03:13PM 29.4669 -88.7367 109° East 450 518 23,700 1,080 Climbing Houston Center
03:14PM 29.4272 -88.6022 109° East 448 516 24,700 960 Climbing Houston Center
03:15PM 29.3850 -88.4689 110° East 446 513 25,700 960 Climbing Houston Center
03:16PM 29.3450 -88.3339 109° East 448 516 26,700 960 Climbing Houston Center
03:17PM 29.3036 -88.2011 110° East 446 513 27,700 1,020 Climbing Houston Center
03:18PM 29.2569 -88.0531 110° East 444 511 28,900 1,020 Climbing Houston Center
03:19PM 29.2161 -87.9217 110° East 442 509 29,900 960 Climbing Houston Center
03:20PM 29.1750 -87.7900 110° East 441 507 30,900 960 Climbing Houston Center
03:21PM 29.1347 -87.6597 109° East 437 503 31,900 1,020 Climbing Houston Center
03:22PM 29.0867 -87.5056 110° East 431 496 33,100 1,020 Climbing Houston Center
03:23PM 29.0461 -87.3786 110° East 428 493 34,100 960 Climbing Houston Center
03:24PM 29.0236 -87.2994 108° East 419 482 34,700 540 Climbing Jacksonville Center
03:25PM 28.9800 -87.1742 112° Southeast 414 476 35,000 120 Climbing Jacksonville Center
03:26PM 28.9406 -87.0419 109° East 420 483 35,000  Level Jacksonville Center
03:27PM 28.8969 -86.9050 110° East 439 505 35,000  Level Jacksonville Center
03:28PM 28.8489 -86.7656 111° Southeast 455 524 35,000  Level Jacksonville Center
03:30PM 28.7550 -86.4778 110° East 476 548 35,000  Level Jacksonville Center
03:31PM 28.7089 -86.3342 110° East 476 548 35,000  Level Jacksonville Center
03:32PM 28.6625 -86.1953 111° Southeast 476 548 35,000  Level Jacksonville Center
03:33PM 28.6139 -86.0519 111° Southeast 476 548 35,000  Level Jacksonville Center
03:34PM 28.5694 -85.9111 110° East 476 548 35,000  Level Jacksonville Center
03:35PM 28.5206 -85.7678 111° Southeast 476 548 35,000  Level Jacksonville Center
03:36PM 28.4736 -85.6272 111° Southeast 476 548 35,000  Level Jacksonville Center
03:37PM 28.4264 -85.4842 111° Southeast 476 548 35,000  Level Jacksonville Center
03:38PM 28.3789 -85.3486 112° Southeast 471 542 35,000  Level Jacksonville Center
03:39PM 28.3336 -85.2083 110° East 466 536 35,000  Level Jacksonville Center
03:40PM 28.2542 -84.9775 111° Southeast 480 552 35,000  Level Miami Center
03:41PM 28.2100 -84.8403 110° East 480 552 35,000  Level Miami Center
03:42PM 28.1614 -84.7028 112° Southeast 475 547 35,000  Level Miami Center
03:43PM 28.1128 -84.5606 111° Southeast 475 547 35,000  Level Miami Center
03:44PM 28.0658 -84.4236 111° Southeast 475 547 35,000  Level Miami Center
03:45PM 28.0042 -84.2878 117° Southeast 475 547 35,000  Level Miami Center
03:46PM 27.9172 -84.1953 137° Southeast 461 531 35,000  Level Miami Center
03:47PM 27.8033 -84.1364 155° Southeast 432 497 35,000  Level Miami Center
03:48PM 27.7000 -84.0783 154° Southeast 426 490 35,000  Level Miami Center
03:49PM 27.5900 -84.0269 158° South 431 496 35,000 -660 Level Miami Center
03:51PM 27.5541 -83.9042 108° East  Level Estimated
03:51PM 27.3636 -83.9217 108° East 436 502 33,100  Level Miami Center
03:52PM 27.2703 -83.8272 138° Southeast 443 510 32,100 -1,020 Descending Miami Center
03:53PM 27.2206 -83.6867 112° Southeast 452 520 31,100 -600 Descending Miami Center
03:54PM 27.1775 -83.5372 108° East 468 539 31,000 -60 Descending Miami Center
03:55PM 27.1406 -83.3906 106° East 481 554 31,000  Level Miami Center
03:56PM 27.1011 -83.2414 107° East 491 565 31,000 -60 Level Miami Center
03:57PM 27.0581 -83.0806 107° East 491 565 30,900 -600 Descending Miami Center
03:58PM 27.0206 -82.9319 106° East 491 565 29,900 -1,200 Descending Miami Center
03:59PM 26.9808 -82.7853 107° East 491 565 28,600 -1,680 Descending Miami Center
04:00PM 26.9428 -82.6436 107° East 481 554 26,600 -2,040 Descending Miami Center
04:01PM 26.9044 -82.5022 107° East 481 554 24,600 -1,320 Descending Miami Center
04:02PM 26.8658 -82.3700 108° East 469 540 24,000 -360 Descending Miami Center
04:03PM 26.8289 -82.2381 107° East 457 526 23,900 -840 Descending Miami Center
04:04PM 26.7919 -82.1061 107° East 449 517 22,400 -1,500 Descending Miami Center
04:05PM 26.7569 -81.9767 107° East 449 517 20,900 -1,500 Descending Miami Center
04:06PM 26.7197 -81.8472 108° East 444 511 19,400 -960 Descending Miami Center
04:07PM 26.6864 -81.7225 107° East 434 499 19,000 -240 Descending Miami Center
04:08PM 26.6944 -81.6044 86° East 419 482 19,000  Level Miami Center
04:09PM 26.7256 -81.4847 74° East 404 465 19,000 -960 Level Miami Center
04:10PM 26.7592 -81.3442 75° East 414 476 17,100 -1,920 Descending Miami Center
04:11PM 26.7858 -81.2242 76° East 408 470 15,200 -1,920 Descending Miami Center
04:12PM 26.8122 -81.1089 76° East 388 447 13,300 -1,800 Descending Miami Center
04:13PM 26.8108 -81.0064 91° East 371 427 11,700 -1,560 Descending Miami Center
04:14PM 26.8075 -80.9064 92° East 339 390 10,200 -1,440 Descending Miami Center
04:15PM 26.8000 -80.8014 95° East 311 358 8,900 -660 Descending Miami Center
04:16PM 26.7475 -80.7297 129° Southeast 288 331 8,900 -180 Level Miami Center
04:17PM 26.6803 -80.6717 142° Southeast 288 331 8,600 -900 Descending Miami Center
04:18PM 26.6256 -80.6028 132° Southeast 297 342 7,100 -1,260 Descending Miami Center
04:19PM 26.5836 -80.5222 120° Southeast 297 342 6,100 -1,080 Descending Miami Center
04:20PM 26.5439 -80.4444 120° Southeast 292 336 5,000 -780 Descending Miami Center
04:22PM 26.5039 -80.2856 106° East 263 303 3,900 -600 Descending Miami Center
04:23PM 26.4950 -80.2133 98° East 252 290 3,300 -600 Descending Miami Center
04:25PM 26.4326 -80.1246 156° South  Level FlightAware Approximate
04:32PM 26.3785 -80.1077 180° South  Level Estimated
04:33PM 26.3785 -80.1077 180° South  Level Estimated
04:34PM 26.3785 -80.1077 180° South  Level Estimated
04:35PM 26.3785 -80.1077 180° South  Level Estimated
04:36PM 26.3785 -80.1077 180° South  Level Estimated